Terminal Aerodrome Forecast
Issued by NWS Blacksburg, VA

Home | Current Version | Previous Version | Text Only | Print | Product List | Glossary On
Versions: 1 2 3 4 5 6 7 8 9 10 11 12 13 14 15 16 17 18 19 20 21 22 23 24 25 26 27 28
801
FTUS41 KRNK 122340
TAFLYH
TAF
KLYH 122340Z 1300/1324 22007KT P6SM -SHSN BKN040
     FM130600 28012G22KT P6SM BKN050
     FM131400 31014G26KT P6SM SCT045
     FM132100 29010KT P6SM SKC=

USA.gov is the U.S. government's official web portal to all federal, state and local government web resources and services.